Time;durP1;ratioP1;P1;durP2;ratioP2;P2;SDS_P1;SDS_P2;PMS_P1;PMS_P2;Temp;Humidity;BMP_temperature;BMP_pressure;BME280_temperature;BME280_humidity;BME280_pressure;Samples;Min_cycle;Max_cycle;Signal;HPM_P1;HPM_P2
2023/03/21 00:00:19;;;;;;;5.93;3.38;;;8.00;1.00;;;;;;6226064;23;20028;-85
2023/03/21 00:03:07;;;;;;;5.70;3.90;;;8.00;1.00;;;;;;6244054;23;20297;-85
2023/03/21 00:05:55;;;;;;;5.07;3.53;;;8.00;1.00;;;;;;6223162;23;20024;-85
2023/03/21 00:08:43;;;;;;;8.82;5.65;;;8.00;1.00;;;;;;6223689;23;20023;-85
2023/03/21 00:11:30;;;;;;;6.53;4.38;;;8.00;1.00;;;;;;6245464;23;20059;-85
2023/03/21 00:14:20;;;;;;;7.75;4.63;;;8.00;1.00;;;;;;6223576;23;20086;-85
2023/03/21 00:17:10;;;;;;;7.05;4.13;;;8.00;1.00;;;;;;6245841;23;20031;-86
2023/03/21 00:19:58;;;;;;;5.90;4.10;;;7.90;1.00;;;;;;6248043;23;20024;-84
2023/03/21 00:22:45;;;;;;;5.90;3.75;;;7.90;1.00;;;;;;6247084;23;20027;-85
2023/03/21 00:25:32;;;;;;;5.93;4.00;;;7.90;1.00;;;;;;6251349;23;20097;-87
2023/03/21 00:28:20;;;;;;;6.13;3.97;;;7.90;1.00;;;;;;6247796;23;20024;-86
2023/03/21 00:31:09;;;;;;;11.98;4.10;;;7.80;1.00;;;;;;6247839;23;20047;-85
2023/03/21 00:33:56;;;;;;;4.45;3.70;;;7.80;3.50;;;;;;6245791;23;20039;-87
2023/03/21 00:36:43;;;;;;;7.13;4.00;;;7.80;1.20;;;;;;6246032;23;20373;-86
2023/03/21 00:39:30;;;;;;;4.35;3.80;;;7.80;1.00;;;;;;6243769;23;20325;-85
2023/03/21 00:42:19;;;;;;;4.82;3.78;;;7.80;1.00;;;;;;6245670;23;20111;-85
2023/03/21 00:45:09;;;;;;;4.35;3.45;;;7.90;1.00;;;;;;6223396;23;20056;-85
2023/03/21 00:47:56;;;;;;;4.47;3.60;;;7.90;1.00;;;;;;6245600;23;20102;-85
2023/03/21 00:50:45;;;;;;;7.20;4.35;;;7.90;1.00;;;;;;6221784;23;20331;-85
2023/03/21 00:53:33;;;;;;;4.88;3.95;;;7.90;1.00;;;;;;6244712;23;20420;-84
2023/03/21 00:56:22;;;;;;;6.32;4.05;;;7.90;1.00;;;;;;6223294;23;20055;-84
2023/03/21 00:59:10;;;;;;;6.05;3.70;;;7.90;1.00;;;;;;6243729;23;20054;-85
2023/03/21 01:01:59;;;;;;;8.43;4.25;;;7.80;1.00;;;;;;6243618;23;20428;-84
2023/03/21 01:04:46;;;;;;;4.75;3.90;;;7.80;1.00;;;;;;6221933;23;20288;-83
2023/03/21 01:07:34;;;;;;;7.47;4.40;;;7.70;7.20;;;;;;6244123;23;20055;-85
2023/03/21 01:10:22;;;;;;;7.43;4.35;;;7.70;19.10;;;;;;6244880;23;20628;-85
2023/03/21 01:13:11;;;;;;;5.63;4.28;;;7.70;29.20;;;;;;6223844;23;20024;-86
2023/03/21 01:15:59;;;;;;;4.88;4.05;;;7.70;47.30;;;;;;6247371;23;20028;-86
2023/03/21 01:18:46;;;;;;;5.18;4.38;;;7.70;56.60;;;;;;6234233;23;20053;-84
2023/03/21 01:21:35;;;;;;;4.97;3.90;;;7.70;69.90;;;;;;6253559;23;20024;-87
2023/03/21 01:24:22;;;;;;;6.10;4.18;;;7.70;79.70;;;;;;6260973;23;20074;-86
2023/03/21 01:27:09;;;;;;;6.63;4.55;;;7.60;92.10;;;;;;6255106;23;20024;-85
2023/03/21 01:29:59;;;;;;;5.60;4.07;;;7.60;99.90;;;;;;6248812;23;20051;-86
2023/03/21 01:32:46;;;;;;;7.50;4.63;;;7.50;99.90;;;;;;6246181;23;20135;-86
2023/03/21 01:35:36;;;;;;;5.78;4.15;;;7.50;99.90;;;;;;6223515;23;20043;-85
2023/03/21 01:38:36;;;;;;;4.97;4.45;;;7.60;99.90;;;;;;6244756;23;20024;-86
2023/03/21 01:41:30;;;;;;;5.38;4.28;;;7.50;99.90;;;;;;6245347;23;20031;-85
2023/03/21 01:44:29;;;;;;;8.27;4.45;;;7.50;99.90;;;;;;6245932;23;20085;-85
2023/03/21 01:47:16;;;;;;;6.40;4.38;;;7.50;99.90;;;;;;6246530;23;20027;-84
2023/03/21 01:50:05;;;;;;;7.32;4.60;;;7.50;99.90;;;;;;6222395;23;20031;-85
2023/03/21 01:52:52;;;;;;;6.57;4.70;;;7.50;99.90;;;;;;6242908;23;20339;-84
2023/03/21 01:55:42;;;;;;;8.35;4.53;;;7.50;99.90;;;;;;6244969;23;20028;-85
2023/03/21 01:58:30;;;;;;;6.65;4.40;;;7.50;99.90;;;;;;6243156;23;20090;-86
2023/03/21 02:01:21;;;;;;;5.22;4.10;;;7.40;99.90;;;;;;6245935;23;20032;-86
2023/03/21 02:04:11;;;;;;;6.35;4.32;;;7.40;99.90;;;;;;6224398;23;20024;-85
2023/03/21 02:07:08;;;;;;;5.65;4.53;;;7.40;99.90;;;;;;6244135;23;20020;-85
2023/03/21 02:09:57;;;;;;;7.78;4.50;;;7.40;99.90;;;;;;6248932;22;20020;-85
2023/03/21 02:12:45;;;;;;;4.97;4.38;;;7.40;99.90;;;;;;6226869;23;20031;-85
2023/03/21 02:15:33;;;;;;;6.18;4.35;;;7.40;99.90;;;;;;6245967;23;20087;-85
2023/03/21 02:18:57;;;;;;;5.95;4.43;;;7.40;99.90;;;;;;6243012;23;20119;-85
2023/03/21 02:22:11;;;;;;;6.35;3.63;;;7.40;99.90;;;;;;6244779;23;20126;-86
2023/03/21 02:25:26;;;;;;;6.00;4.25;;;7.40;99.90;;;;;;6245439;23;20457;-86
2023/03/21 02:28:17;;;;;;;7.03;4.63;;;7.40;99.90;;;;;;6243295;23;20166;-86
2023/03/21 02:31:27;;;;;;;7.68;4.70;;;7.40;99.90;;;;;;6242738;23;20165;-85
2023/03/21 02:34:39;;;;;;;6.63;4.78;;;7.40;99.90;;;;;;6223009;23;20027;-84
2023/03/21 02:37:53;;;;;;;6.72;4.28;;;7.50;99.90;;;;;;6242675;23;20028;-84
2023/03/21 02:41:00;;;;;;;9.20;5.32;;;7.40;99.90;;;;;;6240283;23;20024;-84
2023/03/21 02:44:03;;;;;;;6.55;4.43;;;7.40;99.90;;;;;;6241670;23;20023;-84
2023/03/21 02:46:56;;;;;;;7.70;4.97;;;7.40;99.90;;;;;;6244723;23;20024;-84
2023/03/21 02:50:16;;;;;;;5.55;4.53;;;7.40;99.90;;;;;;6244887;23;20055;-83
2023/03/21 02:53:07;;;;;;;14.35;4.80;;;7.40;99.90;;;;;;6243894;23;20021;-86
2023/03/21 02:55:55;;;;;;;10.60;5.00;;;7.40;99.90;;;;;;6225477;23;20024;-85
2023/03/21 02:58:45;;;;;;;8.40;4.22;;;7.40;99.90;;;;;;6246669;23;20039;-85
2023/03/21 03:01:32;;;;;;;7.07;5.20;;;7.40;99.90;;;;;;6222299;23;20039;-85
2023/03/21 03:04:26;;;;;;;7.10;5.18;;;7.40;99.90;;;;;;6245577;23;20415;-86
2023/03/21 03:07:34;;;;;;;7.45;4.60;;;7.40;99.90;;;;;;6245846;23;20024;-87
2023/03/21 03:10:28;;;;;;;10.20;4.80;;;7.40;99.90;;;;;;6242734;23;20384;-86
2023/03/21 03:13:18;;;;;;;8.32;4.95;;;7.40;99.90;;;;;;6243040;23;20390;-86
2023/03/21 03:16:24;;;;;;;9.57;5.10;;;7.30;99.90;;;;;;6225229;23;20027;-84
2023/03/21 03:19:28;;;;;;;8.25;4.65;;;7.40;99.90;;;;;;6224084;23;20036;-85
2023/03/21 03:22:24;;;;;;;6.45;4.55;;;7.40;99.90;;;;;;6245020;23;20414;-84
2023/03/21 03:25:17;;;;;;;7.47;5.28;;;7.30;99.90;;;;;;6244476;23;20137;-84
2023/03/21 03:28:23;;;;;;;8.13;4.97;;;7.30;99.90;;;;;;6244911;23;20024;-86
2023/03/21 03:31:15;;;;;;;7.70;5.53;;;7.30;99.90;;;;;;6226006;23;20035;-85
2023/03/21 03:34:13;;;;;;;6.78;4.70;;;7.30;99.90;;;;;;6222771;23;20419;-85
2023/03/21 03:37:05;;;;;;;8.73;5.22;;;7.20;99.90;;;;;;6245547;23;20035;-85
2023/03/21 03:40:04;;;;;;;6.72;4.90;;;7.20;99.90;;;;;;6244805;23;20086;-85
2023/03/21 03:42:53;;;;;;;10.07;4.88;;;7.20;99.90;;;;;;6222972;23;20028;-86
2023/03/21 03:45:49;;;;;;;7.88;4.78;;;7.20;99.90;;;;;;6244696;23;20020;-84
2023/03/21 03:48:45;;;;;;;8.48;5.53;;;7.10;99.90;;;;;;6223413;23;20083;-85
2023/03/21 03:51:51;;;;;;;10.60;5.57;;;7.00;99.90;;;;;;6244316;23;20028;-84
2023/03/21 03:54:45;;;;;;;9.75;5.28;;;7.00;99.90;;;;;;6225401;23;20035;-84
2023/03/21 03:57:32;;;;;;;7.65;4.90;;;6.90;99.90;;;;;;6223366;23;20115;-84
2023/03/21 04:00:20;;;;;;;8.80;5.15;;;6.80;99.90;;;;;;6248703;23;20028;-85
2023/03/21 04:03:08;;;;;;;8.57;5.15;;;6.70;99.90;;;;;;6244633;23;20370;-82
2023/03/21 04:05:55;;;;;;;10.85;5.22;;;6.60;99.90;;;;;;6243579;23;20044;-85
2023/03/21 04:08:43;;;;;;;7.20;4.82;;;6.60;99.90;;;;;;6244826;23;20090;-84
2023/03/21 04:11:30;;;;;;;7.75;5.43;;;6.60;1.00;;;;;;6245707;23;20056;-85
2023/03/21 04:14:20;;;;;;;6.82;5.32;;;6.60;1.00;;;;;;6224498;23;20028;-84
2023/03/21 04:17:07;;;;;;;6.00;5.05;;;6.50;1.00;;;;;;6222543;23;20071;-84
2023/03/21 04:19:57;;;;;;;10.82;5.15;;;6.60;1.00;;;;;;6242205;23;20031;-85
2023/03/21 04:22:58;;;;;;;7.07;5.15;;;6.60;1.00;;;;;;6226360;23;20020;-86
2023/03/21 04:25:46;;;;;;;5.70;5.10;;;6.60;1.00;;;;;;6244824;23;20020;-86
2023/03/21 04:28:42;;;;;;;9.85;5.18;;;6.60;1.00;;;;;;6243262;23;20106;-85
2023/03/21 04:31:32;;;;;;;7.43;5.40;;;6.50;1.00;;;;;;6244565;23;20028;-84
2023/03/21 04:34:27;;;;;;;11.10;6.13;;;6.40;1.00;;;;;;6244311;23;20031;-84
2023/03/21 04:37:16;;;;;;;8.45;5.88;;;6.30;1.00;;;;;;6243642;23;20443;-85
2023/03/21 04:40:05;;;;;;;11.70;5.43;;;6.30;1.00;;;;;;6244224;23;20336;-85
2023/03/21 04:42:53;;;;;;;8.15;5.78;;;6.10;1.00;;;;;;6244852;23;20056;-85
2023/03/21 04:45:40;;;;;;;8.88;5.40;;;6.10;51.50;;;;;;6242753;23;20403;-86
2023/03/21 04:48:31;;;;;;;11.73;5.88;;;6.00;99.90;;;;;;6243977;23;20024;-85
2023/03/21 04:51:18;;;;;;;7.97;5.80;;;6.00;99.90;;;;;;6246148;23;20407;-84
2023/03/21 04:54:05;;;;;;;9.55;5.40;;;6.00;99.90;;;;;;6222516;23;20031;-87
2023/03/21 04:56:55;;;;;;;8.38;5.72;;;6.00;99.90;;;;;;6223500;23;20099;-86
2023/03/21 04:59:42;;;;;;;7.18;5.43;;;6.10;99.90;;;;;;6244957;23;20035;-86
2023/03/21 05:02:37;;;;;;;6.07;5.07;;;6.10;99.90;;;;;;6241747;23;20020;-85
2023/03/21 05:05:25;;;;;;;7.38;4.82;;;6.10;99.90;;;;;;6227015;23;20032;-85
2023/03/21 05:08:13;;;;;;;12.40;5.50;;;6.10;99.90;;;;;;6245266;23;20028;-85
2023/03/21 05:11:01;;;;;;;10.32;5.93;;;6.10;99.90;;;;;;6244186;23;20054;-86
2023/03/21 05:13:48;;;;;;;8.70;5.00;;;6.10;99.90;;;;;;6224569;23;20024;-85
2023/03/21 05:16:43;;;;;;;8.75;5.32;;;6.10;99.90;;;;;;6244716;23;20036;-85
2023/03/21 05:19:33;;;;;;;7.30;5.93;;;6.10;99.90;;;;;;6243679;23;20035;-85
2023/03/21 05:22:23;;;;;;;7.18;5.47;;;6.20;99.90;;;;;;6241200;23;20370;-83
2023/03/21 05:25:12;;;;;;;11.75;5.65;;;6.20;99.90;;;;;;6221482;23;20047;-84
2023/03/21 05:28:00;;;;;;;13.88;5.30;;;6.40;99.90;;;;;;6240900;23;20024;-83
2023/03/21 05:30:48;;;;;;;6.63;5.03;;;6.40;99.90;;;;;;6243047;23;20653;-85
2023/03/21 05:33:37;;;;;;;9.80;5.50;;;6.40;99.90;;;;;;6243901;23;20032;-86
2023/03/21 05:36:27;;;;;;;9.63;6.30;;;6.40;70.30;;;;;;6243479;23;20039;-86
2023/03/21 05:39:14;;;;;;;8.10;5.78;;;6.40;58.60;;;;;;6224162;23;20032;-88
2023/03/21 05:42:01;;;;;;;9.13;5.75;;;6.30;90.40;;;;;;6244486;23;20028;-88
2023/03/21 05:44:49;;;;;;;9.73;5.50;;;6.30;99.70;;;;;;6222460;23;20028;-87
2023/03/21 05:47:36;;;;;;;8.07;5.70;;;6.30;99.90;;;;;;6222345;23;20024;-87
2023/03/21 05:50:23;;;;;;;9.27;6.25;;;6.30;99.90;;;;;;6224499;23;20129;-89
2023/03/21 05:53:11;;;;;;;7.75;5.88;;;6.30;99.90;;;;;;6244449;23;20028;-87
2023/03/21 05:55:58;;;;;;;9.52;5.80;;;6.30;99.90;;;;;;6222911;23;20123;-87
2023/03/21 05:58:45;;;;;;;9.20;5.97;;;6.40;99.90;;;;;;6247764;23;20354;-87
2023/03/21 06:01:33;;;;;;;8.43;5.60;;;6.40;93.80;;;;;;6246372;23;20034;-88
2023/03/21 06:04:20;;;;;;;8.43;5.68;;;6.50;60.80;;;;;;6232232;23;20035;-87
2023/03/21 06:07:07;;;;;;;12.20;5.50;;;6.50;35.70;;;;;;6233958;23;20024;-89
2023/03/21 06:10:00;;;;;;;8.13;5.70;;;6.60;12.30;;;;;;6230538;23;20020;-86
2023/03/21 06:12:48;;;;;;;9.93;5.75;;;6.60;1.00;;;;;;6247262;23;20056;-87
2023/03/21 06:15:36;;;;;;;8.82;5.55;;;6.60;1.00;;;;;;6250260;23;20072;-87
2023/03/21 06:18:23;;;;;;;9.32;5.78;;;6.70;1.00;;;;;;6226097;23;20058;-85
2023/03/21 06:21:10;;;;;;;7.88;5.45;;;6.70;1.00;;;;;;6246273;23;20028;-84
2023/03/21 06:23:59;;;;;;;9.05;5.57;;;6.70;1.00;;;;;;6242916;23;20067;-83
2023/03/21 06:26:47;;;;;;;7.93;5.93;;;6.70;1.00;;;;;;6222334;23;20027;-84
2023/03/21 06:29:37;;;;;;;7.70;5.40;;;6.70;1.00;;;;;;6224363;23;20028;-85
2023/03/21 06:32:27;;;;;;;9.15;5.47;;;6.80;1.00;;;;;;6256427;23;20032;-87
2023/03/21 06:35:25;;;;;;;;;;;;;;;;;;;;;
2023/03/21 06:39:17;;;;;;;;;;;;;;;;;;;;;
2023/03/21 06:42:45;;;;;;;7.18;5.18;;;7.00;1.00;;;;;;6244911;23;20046;-87
2023/03/21 06:45:39;;;;;;;8.65;5.18;;;7.30;99.90;;;;;;6245274;23;20090;-88
2023/03/21 06:48:47;;;;;;;7.28;5.40;;;7.50;99.90;;;;;;6224719;23;20020;-90
2023/03/21 06:52:18;;;;;;;7.32;4.90;;;7.70;99.90;;;;;;6227582;23;20020;-88
2023/03/21 06:55:09;;;;;;;8.85;5.32;;;7.80;99.90;;;;;;6244951;23;20095;-88
2023/03/21 06:58:09;;;;;;;5.75;4.50;;;8.00;99.90;;;;;;6247327;23;20078;-88
2023/03/21 07:01:17;;;;;;;8.45;5.15;;;8.00;99.90;;;;;;6154786;23;20031;-86
2023/03/21 07:05:00;;;;;;;6.70;5.18;;;8.00;99.90;;;;;;6154459;23;20013;-87
2023/03/21 07:09:01;;;;;;;9.40;4.25;;;8.10;99.90;;;;;;6093869;23;20037;-85
2023/03/21 07:11:40;;;;;;;5.10;4.25;;;8.20;59.20;;;;;;6153692;23;20026;-86
2023/03/21 07:14:35;;;;;;;7.95;4.28;;;8.40;37.50;;;;;;6152453;23;20025;-85
2023/03/21 07:17:25;;;;;;;7.30;5.10;;;8.60;1.00;;;;;;6151276;23;20029;-87
2023/03/21 07:20:14;;;;;;;7.88;5.35;;;8.80;1.00;;;;;;6153979;23;20133;-86
2023/03/21 07:23:24;;;;;;;9.68;5.25;;;8.90;1.00;;;;;;6151245;23;20029;-86
2023/03/21 07:39:50;;;;;;;;;;;;;;;;;;;;;
2023/03/21 07:56:14;;;;;;;;;;;;;;;;;;;;;
2023/03/21 08:16:14;;;;;;;4.72;2.60;;;12.50;99.90;;;;;;5842995;24;20029;-87
2023/03/21 08:19:09;;;;;;;3.33;2.63;;;12.20;99.90;;;;;;6011518;23;20041;-87
2023/03/21 08:22:02;;;;;;;3.85;2.33;;;12.20;99.90;;;;;;6104660;23;20107;-87
2023/03/21 08:24:50;;;;;;;3.65;2.63;;;12.20;99.90;;;;;;6242612;23;20035;-85
2023/03/21 09:34:44;;;;;;;3.88;1.63;;;16.80;18.80;;;;;;6239144;23;20062;-88
2023/03/21 09:42:29;;;;;;;1.77;1.25;;;16.30;9.80;;;;;;6242957;23;20038;-90
2023/03/21 15:46:23;;;;;;;0.80;0.52;;;16.40;1.00;;;;;;6278203;22;20043;-90
2023/03/21 15:49:28;;;;;;;2.40;0.88;;;16.40;1.00;;;;;;6248423;23;20433;-91
2023/03/21 15:52:34;;;;;;;1.15;0.70;;;16.40;1.00;;;;;;6248585;23;20327;-89
2023/03/21 15:55:37;;;;;;;0.63;0.60;;;16.40;1.00;;;;;;6246798;23;20115;-89
2023/03/21 15:58:38;;;;;;;1.38;0.70;;;16.20;1.00;;;;;;6226615;23;20566;-90
2023/03/21 16:01:31;;;;;;;5.60;1.70;;;16.30;1.00;;;;;;6228926;23;20024;-90
2023/03/21 16:04:32;;;;;;;5.65;1.60;;;16.10;1.00;;;;;;6231286;23;20027;-90
2023/03/21 16:07:19;;;;;;;3.25;2.00;;;15.80;1.00;;;;;;6228818;23;20024;-87
2023/03/21 16:10:36;;;;;;;3.10;1.95;;;15.70;1.00;;;;;;6252485;23;20020;-88
2023/03/21 16:13:23;;;;;;;3.97;1.95;;;15.50;1.00;;;;;;6248017;23;20419;-90
2023/03/21 16:16:25;;;;;;;10.73;2.00;;;15.30;1.00;;;;;;6246394;23;20032;-89
2023/03/21 16:19:17;;;;;;;5.97;2.03;;;15.00;1.00;;;;;;6246322;23;20020;-90
2023/03/21 16:22:14;;;;;;;5.35;2.22;;;14.80;1.00;;;;;;6224368;23;20032;-90
2023/03/21 16:25:01;;;;;;;8.68;2.67;;;14.70;1.00;;;;;;6223203;23;20039;-85
2023/03/21 16:27:49;;;;;;;4.32;2.20;;;14.50;1.00;;;;;;6223549;23;20024;-86
2023/03/21 16:30:37;;;;;;;4.03;2.00;;;14.40;1.00;;;;;;6244175;23;20020;-86
2023/03/21 16:33:29;;;;;;;11.25;3.08;;;14.30;1.00;;;;;;6244250;23;20656;-86
2023/03/21 16:36:24;;;;;;;12.32;2.42;;;14.20;1.00;;;;;;6223584;23;20028;-88
2023/03/21 16:39:24;;;;;;;3.42;2.10;;;14.10;1.00;;;;;;6226128;23;20335;-85
2023/03/21 16:42:11;;;;;;;4.85;1.90;;;14.00;1.00;;;;;;6247276;23;20062;-86
2023/03/21 16:44:59;;;;;;;5.30;2.05;;;13.90;1.00;;;;;;6245180;23;20047;-86
2023/03/21 16:47:48;;;;;;;5.88;2.20;;;13.80;1.00;;;;;;6245801;23;20032;-85
2023/03/21 16:50:42;;;;;;;5.50;2.05;;;13.80;1.00;;;;;;6246418;23;20020;-84
2023/03/21 16:53:30;;;;;;;3.60;2.17;;;13.70;1.00;;;;;;6224996;23;20028;-85
2023/03/21 16:56:21;;;;;;;6.65;2.67;;;13.60;1.00;;;;;;6246529;23;20036;-86
2023/03/21 16:59:13;;;;;;;5.97;2.70;;;13.50;1.00;;;;;;6256027;23;20107;-86
2023/03/21 17:02:01;;;;;;;5.10;2.08;;;13.40;1.00;;;;;;6233874;23;20028;-87
2023/03/21 17:04:49;;;;;;;9.90;2.55;;;13.30;1.00;;;;;;6255530;23;20024;-85
2023/03/21 17:07:37;;;;;;;9.45;1.83;;;13.20;10.10;;;;;;6259488;22;20035;-86
2023/03/21 17:10:30;;;;;;;9.73;2.50;;;13.10;10.20;;;;;;6241242;23;20080;-86
2023/03/21 17:13:20;;;;;;;8.75;3.33;;;13.10;9.80;;;;;;6267030;23;20014;-86
2023/03/21 17:16:12;;;;;;;3.85;2.80;;;13.00;15.20;;;;;;6260452;23;20083;-85
2023/03/21 17:19:00;;;;;;;6.43;3.17;;;12.90;23.60;;;;;;6253742;23;20104;-86
2023/03/21 17:21:48;;;;;;;8.30;2.60;;;12.80;28.00;;;;;;6253905;23;20020;-86
2023/03/21 17:24:38;;;;;;;9.27;3.63;;;12.80;28.70;;;;;;6252009;23;20024;-85
2023/03/21 17:27:40;;;;;;;7.32;3.40;;;12.70;42.20;;;;;;6249780;23;20020;-87
2023/03/21 17:30:34;;;;;;;43.92;15.05;;;12.60;51.20;;;;;;6246295;23;20159;-87
2023/03/21 17:33:24;;;;;;;7.53;3.15;;;12.50;54.50;;;;;;6247707;23;20024;-87
2023/03/21 17:36:15;;;;;;;5.95;2.70;;;12.40;63.40;;;;;;6247445;23;20399;-88
2023/03/21 17:39:08;;;;;;;10.65;3.25;;;12.30;71.40;;;;;;6226647;23;20431;-90
2023/03/21 17:41:55;;;;;;;5.43;2.47;;;12.20;74.80;;;;;;6244993;23;20080;-88
2023/03/21 17:44:43;;;;;;;8.57;3.13;;;12.10;80.80;;;;;;6224193;23;20028;-88
2023/03/21 17:47:34;;;;;;;5.88;2.90;;;12.00;88.50;;;;;;6257307;23;20051;-87
2023/03/21 17:50:26;;;;;;;6.95;2.55;;;12.00;96.60;;;;;;6257139;23;20088;-88
2023/03/21 17:53:13;;;;;;;3.05;1.83;;;11.90;99.90;;;;;;6256402;23;20012;-88
2023/03/21 17:56:01;;;;;;;6.75;2.22;;;11.90;99.90;;;;;;6250001;23;20031;-89
2023/03/21 17:58:49;;;;;;;4.40;2.40;;;11.80;99.90;;;;;;6224800;23;20024;-90
2023/03/21 18:01:36;;;;;;;6.55;2.50;;;11.80;99.90;;;;;;6247378;23;20039;-91
2023/03/21 18:04:26;;;;;;;5.38;2.72;;;11.70;99.90;;;;;;6244161;23;20024;-90
2023/03/21 18:07:15;;;;;;;5.90;2.20;;;11.70;99.90;;;;;;6244906;23;20158;-90
2023/03/21 18:10:26;;;;;;;5.13;2.10;;;11.60;99.90;;;;;;6229977;23;20111;-90
2023/03/21 18:13:14;;;;;;;9.35;2.92;;;11.60;99.90;;;;;;6223970;23;20409;-89
2023/03/21 18:16:02;;;;;;;5.15;2.67;;;11.60;99.90;;;;;;6223648;23;20024;-90
2023/03/21 18:18:52;;;;;;;9.07;3.35;;;11.70;99.90;;;;;;6225632;23;20319;-89
2023/03/21 18:21:42;;;;;;;6.85;3.00;;;11.70;99.90;;;;;;6247782;23;20446;-89
2023/03/21 18:24:31;;;;;;;10.63;2.97;;;11.70;99.90;;;;;;6224002;23;20020;-88
2023/03/21 18:27:21;;;;;;;4.95;2.75;;;11.60;99.90;;;;;;6225842;23;20031;-89
2023/03/21 18:30:14;;;;;;;6.25;3.17;;;11.70;99.90;;;;;;6245863;23;20024;-90
2023/03/21 18:33:22;;;;;;;7.65;3.10;;;11.60;99.90;;;;;;6244886;23;20304;-90
2023/03/21 18:36:15;;;;;;;10.27;4.00;;;11.50;99.90;;;;;;6243917;23;20304;-88
2023/03/21 18:39:12;;;;;;;6.75;3.92;;;11.40;99.90;;;;;;6247454;23;20150;-89
2023/03/21 18:42:00;;;;;;;11.98;3.90;;;11.30;99.90;;;;;;6246476;23;20420;-89
2023/03/21 18:44:52;;;;;;;7.82;3.90;;;11.30;99.90;;;;;;6245601;23;20032;-90
2023/03/21 18:47:40;;;;;;;7.75;4.55;;;11.30;99.90;;;;;;6225790;23;20537;-88
2023/03/21 18:50:28;;;;;;;6.72;3.83;;;11.30;99.90;;;;;;6247927;23;20034;-89
2023/03/21 18:53:18;;;;;;;8.20;3.60;;;11.30;99.90;;;;;;6247891;23;20327;-90
2023/03/21 18:56:06;;;;;;;10.77;4.72;;;11.30;99.90;;;;;;6228001;23;20155;-89
2023/03/21 18:58:57;;;;;;;7.70;4.30;;;11.20;99.90;;;;;;6233890;23;20032;-90
2023/03/21 19:01:48;;;;;;;13.85;6.25;;;11.20;99.90;;;;;;6251982;23;20327;-88
2023/03/21 19:04:36;;;;;;;9.98;5.38;;;11.10;99.90;;;;;;6231297;23;20024;-90
2023/03/21 19:07:27;;;;;;;12.38;5.45;;;11.10;99.90;;;;;;6252363;23;20480;-89
2023/03/21 19:10:16;;;;;;;9.10;4.50;;;11.10;99.90;;;;;;6230729;23;20099;-89
2023/03/21 19:13:06;;;;;;;12.45;5.30;;;11.20;99.90;;;;;;6252341;23;20020;-90
2023/03/21 19:15:55;;;;;;;9.98;4.40;;;11.10;99.90;;;;;;6246700;23;20047;-91
2023/03/21 19:18:43;;;;;;;11.00;4.82;;;11.10;99.90;;;;;;6247984;23;20028;-91
2023/03/21 19:21:42;;;;;;;9.70;5.30;;;11.20;99.90;;;;;;6226099;23;20443;-88
2023/03/21 19:24:32;;;;;;;11.00;5.72;;;11.20;99.90;;;;;;6246104;23;20020;-90
2023/03/21 19:27:20;;;;;;;8.45;5.35;;;11.20;99.90;;;;;;6225815;23;20106;-88
2023/03/21 19:30:12;;;;;;;10.95;6.43;;;11.10;99.90;;;;;;6246205;23;20082;-88
2023/03/21 19:33:02;;;;;;;15.70;7.80;;;11.00;99.90;;;;;;6246704;23;20031;-87
2023/03/21 19:35:49;;;;;;;13.82;8.40;;;10.90;1.00;;;;;;6227291;23;20596;-88
2023/03/21 19:38:57;;;;;;;13.18;9.13;;;10.80;1.00;;;;;;6244733;23;20028;-87
2023/03/21 19:41:45;;;;;;;14.57;8.55;;;10.80;1.00;;;;;;6245741;23;20035;-85
2023/03/21 19:44:40;;;;;;;17.42;8.90;;;10.90;1.00;;;;;;6246008;22;20039;-85
2023/03/21 19:47:29;;;;;;;16.55;8.63;;;11.00;1.00;;;;;;6248287;23;20099;-88
2023/03/21 19:50:16;;;;;;;14.52;7.78;;;11.00;1.00;;;;;;6246227;23;20016;-89
2023/03/21 19:53:24;;;;;;;9.23;5.93;;;10.90;1.00;;;;;;6228734;23;20024;-89
2023/03/21 19:56:13;;;;;;;19.13;8.05;;;10.80;1.00;;;;;;6226957;23;20438;-90
2023/03/21 19:59:12;;;;;;;11.70;7.18;;;10.90;1.00;;;;;;6228948;23;20100;-89
2023/03/21 20:02:01;;;;;;;19.67;8.32;;;10.80;1.00;;;;;;6226383;23;20035;-88
2023/03/21 20:05:10;;;;;;;11.93;7.65;;;10.70;1.00;;;;;;6229782;23;20020;-89
2023/03/21 20:08:00;;;;;;;10.55;6.97;;;10.50;1.00;;;;;;6225458;23;20077;-86
2023/03/21 20:10:54;;;;;;;14.80;7.32;;;10.40;3.00;;;;;;6248252;23;20020;-86
2023/03/21 20:13:45;;;;;;;14.77;7.68;;;10.20;41.70;;;;;;6249847;23;20320;-87
2023/03/21 20:16:36;;;;;;;11.73;7.05;;;10.10;85.80;;;;;;6251380;23;20423;-88
2023/03/21 20:19:24;;;;;;;13.30;6.55;;;10.10;90.40;;;;;;6247972;23;20051;-89
2023/03/21 20:22:12;;;;;;;15.98;7.78;;;10.10;81.60;;;;;;6247056;23;20016;-88
2023/03/21 20:25:14;;;;;;;14.48;8.20;;;10.10;47.10;;;;;;6247218;23;20020;-87
2023/03/21 20:28:06;;;;;;;11.05;6.57;;;10.20;1.00;;;;;;6247102;23;20107;-86
2023/03/21 20:31:07;;;;;;;13.18;6.68;;;10.30;1.00;;;;;;6245151;23;20024;-86
2023/03/21 20:33:54;;;;;;;8.88;6.13;;;10.30;1.00;;;;;;6248752;22;20388;-88
2023/03/21 20:36:42;;;;;;;8.95;5.63;;;10.30;1.00;;;;;;6248356;23;20024;-87
2023/03/21 20:39:30;;;;;;;7.90;4.13;;;10.30;1.00;;;;;;6224196;23;20086;-88
2023/03/21 20:42:17;;;;;;;6.05;4.20;;;10.20;1.00;;;;;;6246124;23;20031;-89
2023/03/21 20:45:07;;;;;;;8.15;3.67;;;10.20;1.00;;;;;;6247273;23;20020;-88
2023/03/21 20:47:54;;;;;;;7.10;4.65;;;10.20;1.00;;;;;;6226524;23;20024;-88
2023/03/21 20:50:42;;;;;;;6.15;4.22;;;10.20;1.00;;;;;;6247209;23;20103;-89
2023/03/21 20:53:31;;;;;;;5.75;4.15;;;10.30;99.90;;;;;;6226431;23;20024;-86
2023/03/21 20:56:19;;;;;;;7.22;4.78;;;10.30;99.90;;;;;;6226246;23;20035;-88
2023/03/21 20:59:09;;;;;;;6.18;4.80;;;10.30;99.90;;;;;;6247604;23;20028;-88
2023/03/21 21:02:12;;;;;;;10.93;5.43;;;10.30;99.90;;;;;;6244723;23;20125;-87
2023/03/21 21:04:59;;;;;;;9.30;4.85;;;10.20;99.90;;;;;;6246509;23;20035;-89
2023/03/21 21:08:07;;;;;;;10.55;5.50;;;10.20;1.00;;;;;;6247895;23;20111;-90
2023/03/21 21:10:54;;;;;;;9.52;5.32;;;10.10;1.00;;;;;;6224117;23;20400;-87
2023/03/21 21:14:02;;;;;;;6.93;4.30;;;10.10;1.00;;;;;;6247662;23;20021;-88
2023/03/21 21:16:57;;;;;;;9.10;4.55;;;10.10;1.00;;;;;;6247707;23;20024;-88
2023/03/21 21:20:16;;;;;;;5.93;4.05;;;10.20;1.00;;;;;;6244953;23;20027;-89
2023/03/21 21:23:06;;;;;;;6.50;3.88;;;10.20;99.90;;;;;;6226402;23;20082;-87
2023/03/21 21:25:55;;;;;;;3.60;2.92;;;10.20;99.90;;;;;;6245658;23;20030;-89
2023/03/21 21:28:46;;;;;;;4.60;2.85;;;10.20;99.90;;;;;;6245634;23;20601;-90
2023/03/21 21:31:38;;;;;;;4.65;3.42;;;10.20;99.90;;;;;;6250159;23;20092;-88
2023/03/21 21:34:31;;;;;;;4.57;2.92;;;10.30;99.90;;;;;;6228365;23;20046;-88
2023/03/21 21:37:18;;;;;;;7.80;4.15;;;10.40;99.90;;;;;;6250612;23;20518;-87
2023/03/21 21:40:14;;;;;;;9.68;5.47;;;10.40;99.90;;;;;;6247798;23;20028;-87
2023/03/21 21:43:03;;;;;;;7.45;5.35;;;10.40;99.90;;;;;;6246329;23;20024;-89
2023/03/21 21:45:54;;;;;;;10.27;6.00;;;10.40;99.90;;;;;;6246532;23;20086;-88
2023/03/21 21:48:42;;;;;;;8.68;4.95;;;10.30;99.90;;;;;;6242787;23;20027;-89
2023/03/21 21:51:32;;;;;;;10.23;5.40;;;10.30;99.90;;;;;;6244634;23;20020;-87
2023/03/21 21:54:20;;;;;;;10.27;5.68;;;10.10;99.90;;;;;;6244242;23;20350;-87
2023/03/21 21:57:07;;;;;;;7.95;5.05;;;10.10;1.00;;;;;;6225275;23;20023;-87
2023/03/21 21:59:55;;;;;;;7.55;5.20;;;10.00;1.00;;;;;;6244386;23;20455;-87
2023/03/21 22:02:44;;;;;;;8.32;5.28;;;9.90;1.00;;;;;;6247561;23;20024;-87
2023/03/21 22:05:35;;;;;;;5.50;4.50;;;9.90;1.00;;;;;;6246614;23;20028;-87
2023/03/21 22:08:22;;;;;;;6.97;4.72;;;9.90;1.00;;;;;;6245612;23;20019;-88
2023/03/21 22:11:14;;;;;;;8.23;4.70;;;9.90;1.00;;;;;;6243957;23;20406;-86
2023/03/21 22:14:02;;;;;;;6.45;4.85;;;9.90;1.00;;;;;;6244511;23;20415;-86
2023/03/21 22:16:49;;;;;;;8.05;5.25;;;9.90;1.00;;;;;;6223721;23;20031;-87
2023/03/21 22:19:36;;;;;;;9.00;5.78;;;9.90;1.00;;;;;;6244120;23;20050;-87
2023/03/21 22:22:29;;;;;;;6.43;5.10;;;9.80;1.00;;;;;;6243888;23;20338;-88
2023/03/21 22:25:24;;;;;;;5.93;4.47;;;9.90;1.00;;;;;;6245569;23;20031;-86
2023/03/21 22:28:11;;;;;;;11.23;4.22;;;9.90;99.90;;;;;;6248683;23;20028;-87
2023/03/21 22:31:15;;;;;;;6.93;4.10;;;10.00;99.90;;;;;;6248044;23;20027;-87
2023/03/21 22:34:02;;;;;;;6.38;4.40;;;10.10;99.90;;;;;;6225815;23;20024;-87
2023/03/21 22:36:50;;;;;;;8.40;4.20;;;10.10;99.90;;;;;;6245418;23;20039;-86
2023/03/21 22:39:38;;;;;;;6.70;4.10;;;10.00;99.90;;;;;;6222907;23;20028;-87
2023/03/21 22:42:25;;;;;;;4.80;3.72;;;10.10;99.90;;;;;;6222472;23;20028;-87
2023/03/21 22:45:13;;;;;;;5.40;3.80;;;10.20;99.90;;;;;;6246296;23;20032;-87
2023/03/21 22:48:00;;;;;;;3.42;2.78;;;10.20;99.90;;;;;;6246500;23;20036;-87
2023/03/21 22:50:50;;;;;;;6.18;2.92;;;10.30;99.90;;;;;;6246780;23;20075;-88
2023/03/21 22:53:37;;;;;;;5.63;2.72;;;10.20;99.90;;;;;;6222336;23;20027;-87
2023/03/21 22:56:24;;;;;;;5.07;2.83;;;10.10;99.90;;;;;;6246749;23;20146;-86
2023/03/21 22:59:14;;;;;;;8.10;2.70;;;10.10;99.90;;;;;;6245089;23;20074;-87
2023/03/21 23:02:01;;;;;;;4.57;2.58;;;10.00;99.90;;;;;;6225750;23;20511;-86
2023/03/21 23:04:50;;;;;;;3.05;2.20;;;9.90;99.90;;;;;;6248330;23;20079;-87
2023/03/21 23:07:38;;;;;;;5.60;3.20;;;9.80;99.90;;;;;;6245802;23;20082;-86